Time;durP1;ratioP1;P1;durP2;ratioP2;P2;SDS_P1;SDS_P2;PMS_P1;PMS_P2;Temp;Humidity;BMP_temperature;BMP_pressure;BME280_temperature;BME280_humidity;BME280_pressure;Samples;Min_cycle;Max_cycle;Signal;HPM_P1;HPM_P2
2022/12/18 00:01:05;;;;;;;52.78;20.50;;;;;;;-5.20;94.07;102809.13;4993503;28;20177;-68
2022/12/18 00:03:32;;;;;;;55.05;21.35;;;;;;;-5.22;94.05;102802.06;5025285;28;20010;-68
2022/12/18 00:05:58;;;;;;;50.50;20.08;;;;;;;-5.24;94.30;102801.91;4993627;28;20034;-68
2022/12/18 00:08:23;;;;;;;51.85;20.30;;;;;;;-5.31;93.81;102799.34;4993403;28;20060;-68
2022/12/18 00:10:48;;;;;;;56.08;20.20;;;;;;;-5.31;94.17;102814.59;4994106;28;20105;-68
2022/12/18 00:13:13;;;;;;;50.67;19.92;;;;;;;-5.36;93.32;102819.09;4993807;28;20030;-68
2022/12/18 00:15:39;;;;;;;49.40;20.38;;;;;;;-5.37;93.59;102818.94;4993026;28;20014;-68
2022/12/18 00:18:05;;;;;;;55.00;20.40;;;;;;;-5.41;93.43;102805.84;4994076;28;20034;-68
2022/12/18 00:20:31;;;;;;;53.83;20.00;;;;;;;-5.41;93.16;102808.41;4993385;28;20007;-68
2022/12/18 00:22:56;;;;;;;53.90;21.55;;;;;;;-5.40;93.24;102801.72;4993681;28;20257;-68
2022/12/18 00:25:22;;;;;;;51.53;20.38;;;;;;;-5.41;93.50;102794.81;4994483;28;20018;-68
2022/12/18 00:27:48;;;;;;;56.85;21.25;;;;;;;-5.46;93.95;102783.19;4991749;28;20057;-68
2022/12/18 00:30:13;;;;;;;50.28;20.58;;;;;;;-5.50;93.89;102775.94;4994297;28;20249;-68
2022/12/18 00:32:39;;;;;;;48.00;19.98;;;;;;;-5.55;92.94;102757.59;4997237;28;20014;-68
2022/12/18 00:35:05;;;;;;;54.15;21.90;;;;;;;-5.63;93.03;102761.75;4996475;28;20019;-68
2022/12/18 00:37:33;;;;;;;53.30;19.95;;;;;;;-5.70;93.34;102761.75;4997412;28;20045;-68
2022/12/18 00:39:58;;;;;;;57.38;20.67;;;;;;;-5.73;93.78;102775.72;4997278;28;20185;-69
2022/12/18 00:45:07;;;;;;;49.58;19.10;;;;;;;-5.79;93.64;102768.28;4997251;28;20108;-68
2022/12/18 00:47:33;;;;;;;50.83;20.27;;;;;;;-5.82;92.79;102763.72;4996681;28;20209;-68
2022/12/18 00:49:58;;;;;;;49.90;20.00;;;;;;;-5.85;92.14;102763.38;4997958;28;20038;-68
2022/12/18 00:52:23;;;;;;;54.92;20.85;;;;;;;-5.89;92.59;102767.88;4996560;28;20272;-68
2022/12/18 00:54:48;;;;;;;51.70;18.58;;;;;;;-5.91;92.43;102766.78;4996218;28;20034;-68
2022/12/18 00:57:14;;;;;;;49.40;19.65;;;;;;;-5.92;92.39;102758.28;4997269;28;20312;-64
2022/12/18 00:59:39;;;;;;;50.75;19.63;;;;;;;-5.92;93.04;102758.28;4997360;28;20033;-65
2022/12/18 01:02:04;;;;;;;46.15;19.58;;;;;;;-5.96;92.56;102762.06;4996824;28;20078;-65
2022/12/18 01:04:31;;;;;;;50.92;18.55;;;;;;;-5.99;92.63;102769.34;4997406;28;20030;-65
2022/12/18 01:06:57;;;;;;;54.10;20.08;;;;;;;-5.99;92.29;102782.03;4997193;28;20404;-64
2022/12/18 01:09:22;;;;;;;47.22;19.52;;;;;;;-6.03;92.90;102784.03;4999516;28;20065;-64
2022/12/18 01:11:47;;;;;;;48.95;19.60;;;;;;;-6.06;92.05;102792.16;5007233;28;20158;-65
2022/12/18 01:14:12;;;;;;;51.63;20.02;;;;;;;-6.04;92.92;102795.81;5007360;28;20022;-64
2022/12/18 01:16:38;;;;;;;46.50;19.13;;;;;;;-6.03;93.00;102789.09;5007025;28;20177;-65
2022/12/18 01:19:03;;;;;;;50.53;19.63;;;;;;;-6.04;93.06;102783.13;5006924;28;20045;-64
2022/12/18 01:21:28;;;;;;;49.17;19.90;;;;;;;-6.04;92.84;102790.75;5006883;28;20014;-64
2022/12/18 01:23:55;;;;;;;49.03;18.95;;;;;;;-6.02;92.33;102798.53;5006707;28;20316;-65
2022/12/18 01:26:21;;;;;;;48.72;18.63;;;;;;;-6.05;91.89;102795.59;5006755;28;20086;-64
2022/12/18 01:28:47;;;;;;;47.42;19.15;;;;;;;-6.09;92.24;102791.78;5005649;28;20022;-64
2022/12/18 01:31:18;;;;;;;40.47;18.90;;;;;;;-6.12;92.39;102787.25;5006733;28;20121;-64
2022/12/18 01:33:44;;;;;;;44.40;18.65;;;;;;;-6.10;92.84;102781.47;5005482;28;20292;-65
2022/12/18 01:36:15;;;;;;;45.70;19.60;;;;;;;-6.10;92.08;102781.47;5006655;28;20073;-65
2022/12/18 01:38:40;;;;;;;43.45;18.25;;;;;;;-6.10;92.11;102782.34;5006414;28;20018;-65
2022/12/18 01:41:06;;;;;;;43.88;19.52;;;;;;;-6.12;91.82;102774.56;5006522;28;20096;-64
2022/12/18 01:43:57;;;;;;;43.30;18.27;;;;;;;-6.10;92.49;102778.91;5005733;28;20014;-65
2022/12/18 01:46:26;;;;;;;49.92;18.85;;;;;;;-6.09;92.17;102781.66;5006376;28;20101;-65
2022/12/18 01:49:01;;;;;;;45.45;19.23;;;;;;;-6.13;91.84;102776.91;5006469;28;20026;-64
2022/12/18 01:51:28;;;;;;;47.05;18.95;;;;;;;-6.15;93.42;102771.66;5006259;28;20046;-65
2022/12/18 01:53:53;;;;;;;48.25;18.73;;;;;;;-6.20;93.86;102777.81;5006322;28;20032;-65
2022/12/18 01:56:20;;;;;;;47.03;18.98;;;;;;;-6.22;94.04;102781.78;5006320;28;20026;-65
2022/12/18 01:59:07;;;;;;;45.72;19.50;;;;;;;-6.24;93.77;102783.22;5006417;28;20026;-64
2022/12/18 02:01:33;;;;;;;43.25;17.60;;;;;;;-6.31;93.94;102776.50;5005145;28;20014;-65
2022/12/18 02:04:22;;;;;;;46.45;18.45;;;;;;;-6.31;93.83;102766.34;5006277;28;20217;-64
2022/12/18 02:06:56;;;;;;;44.75;18.48;;;;;;;-6.29;93.58;102758.91;5006640;28;20038;-68
2022/12/18 02:09:31;;;;;;;42.72;17.00;;;;;;;-6.29;93.12;102759.81;5005986;28;20017;-67
2022/12/18 02:12:05;;;;;;;41.35;18.05;;;;;;;-6.27;92.85;102766.72;5005849;28;20168;-67
2022/12/18 02:14:48;;;;;;;41.92;17.98;;;;;;;-6.27;92.49;102767.63;5005838;28;20042;-67
2022/12/18 02:17:19;;;;;;;46.47;18.15;;;;;;;-6.27;92.21;102772.72;5002145;28;20169;-67
2022/12/18 02:20:02;;;;;;;41.92;17.85;;;;;;;-6.30;92.14;102764.69;4995966;28;20089;-67
2022/12/18 02:22:49;;;;;;;43.42;17.10;;;;;;;-6.34;91.86;102765.06;5027528;28;20026;-67
2022/12/18 02:25:36;;;;;;;43.63;17.77;;;;;;;-6.39;92.04;102756.88;4995346;28;20137;-67
2022/12/18 02:28:06;;;;;;;41.63;18.00;;;;;;;-6.41;91.78;102767.59;4995940;28;20090;-67
2022/12/18 02:30:35;;;;;;;40.65;17.98;;;;;;;-6.46;91.31;102761.91;4995354;28;20308;-67
2022/12/18 02:33:04;;;;;;;39.72;18.13;;;;;;;-6.47;91.61;102766.09;4995164;28;20034;-67
2022/12/18 02:35:30;;;;;;;43.22;18.55;;;;;;;-6.51;91.68;102755.38;4995299;28;20046;-67
2022/12/18 02:37:57;;;;;;;46.28;18.60;;;;;;;-6.53;91.99;102766.94;4995164;28;20030;-67
2022/12/18 02:40:26;;;;;;;42.88;17.25;;;;;;;-6.52;92.30;102764.59;4994873;28;20034;-67
2022/12/18 02:42:51;;;;;;;43.23;17.77;;;;;;;-6.51;92.05;102761.34;4995137;28;20068;-67
2022/12/18 02:45:16;;;;;;;40.88;17.98;;;;;;;-6.52;91.61;102763.72;4994856;28;20062;-67
2022/12/18 02:47:45;;;;;;;44.60;18.33;;;;;;;-6.55;91.57;102754.09;4994516;28;20100;-68
2022/12/18 02:50:31;;;;;;;43.03;17.63;;;;;;;-6.56;92.20;102739.63;4995683;28;20031;-67
2022/12/18 02:53:27;;;;;;;43.35;17.25;;;;;;;-6.55;92.10;102732.91;5002009;28;20014;-67
2022/12/18 02:56:01;;;;;;;38.70;18.25;;;;;;;-6.58;91.60;102738.50;5005317;28;20060;-67
2022/12/18 02:59:00;;;;;;;35.05;16.98;;;;;;;-6.62;91.70;102745.56;5005105;28;20023;-67
2022/12/18 03:01:36;;;;;;;37.75;15.70;;;;;;;-6.64;91.89;102732.69;5004575;28;20085;-67
2022/12/18 03:04:16;;;;;;;41.45;17.85;;;;;;;-6.65;91.59;102734.34;5005278;28;20011;-67
2022/12/18 03:06:45;;;;;;;40.55;16.33;;;;;;;-6.64;91.58;102730.16;5005271;28;20018;-68
2022/12/18 03:09:28;;;;;;;40.65;16.98;;;;;;;-6.63;92.07;102729.44;5004836;28;20014;-67
2022/12/18 03:14:45;;;;;;;40.50;17.48;;;;;;;-6.64;92.00;102720.00;5004929;28;20033;-67
2022/12/18 03:17:15;;;;;;;40.23;17.13;;;;;;;-6.65;91.84;102718.19;5004874;28;20253;-67
2022/12/18 03:19:42;;;;;;;41.45;16.88;;;;;;;-6.67;91.24;102704.44;5004749;28;20263;-67
2022/12/18 03:22:09;;;;;;;42.00;17.88;;;;;;;-6.66;91.32;102711.34;5003165;28;20046;-67
2022/12/18 03:24:38;;;;;;;36.47;16.65;;;;;;;-6.68;91.06;102717.81;4995145;28;20089;-67
2022/12/18 03:27:09;;;;;;;38.25;16.58;;;;;;;-6.72;90.90;102718.16;5002350;28;20017;-67
2022/12/18 03:29:42;;;;;;;40.15;17.38;;;;;;;-6.74;90.78;102717.06;5004345;28;20041;-67
2022/12/18 03:32:13;;;;;;;37.10;16.65;;;;;;;-6.76;90.91;102726.09;5004196;28;20102;-67
2022/12/18 03:34:42;;;;;;;37.05;15.93;;;;;;;-6.78;90.79;102727.56;5004420;28;20072;-68
2022/12/18 03:37:07;;;;;;;36.33;15.93;;;;;;;-6.80;90.81;102729.00;5004222;28;20224;-65
2022/12/18 03:39:33;;;;;;;35.95;16.25;;;;;;;-6.80;90.48;102722.28;5004341;28;20144;-65
2022/12/18 03:42:09;;;;;;;36.78;16.27;;;;;;;-6.84;90.54;102728.59;5004381;28;20089;-64
2022/12/18 03:44:58;;;;;;;33.88;15.30;;;;;;;-6.86;90.60;102724.06;5004234;28;20062;-65
2022/12/18 03:47:59;;;;;;;37.55;16.30;;;;;;;-6.87;90.08;102723.16;5004153;28;20277;-65
2022/12/18 03:50:37;;;;;;;36.67;15.23;;;;;;;-6.90;90.33;102711.75;5004008;28;20029;-64
2022/12/18 03:53:16;;;;;;;37.15;15.95;;;;;;;-6.94;90.33;102710.44;5004270;28;20042;-65
2022/12/18 03:55:42;;;;;;;34.38;15.30;;;;;;;-6.97;90.48;102702.47;5004291;28;20082;-65
2022/12/18 03:58:12;;;;;;;34.78;15.88;;;;;;;-7.01;90.19;102698.66;5004223;28;20031;-64
2022/12/18 04:00:38;;;;;;;37.15;15.68;;;;;;;-7.04;90.33;102690.69;5004182;28;20023;-65
2022/12/18 04:03:05;;;;;;;30.13;15.00;;;;;;;-7.07;90.08;102685.22;5004164;28;20022;-65
2022/12/18 04:05:34;;;;;;;33.05;14.60;;;;;;;-7.10;90.23;102682.31;5003619;28;20257;-65
2022/12/18 04:08:01;;;;;;;34.17;15.05;;;;;;;-7.10;90.50;102676.34;5004691;28;20041;-65
2022/12/18 04:10:26;;;;;;;32.85;14.75;;;;;;;-7.10;90.84;102679.75;5004525;28;20021;-65
2022/12/18 04:12:55;;;;;;;34.42;14.80;;;;;;;-7.08;90.97;102675.81;5004001;28;20010;-65
2022/12/18 04:15:20;;;;;;;32.97;14.55;;;;;;;-7.08;91.16;102675.81;5003905;28;20015;-65
2022/12/18 04:17:49;;;;;;;32.53;14.10;;;;;;;-7.08;91.76;102667.28;5004134;28;20040;-65
2022/12/18 04:20:15;;;;;;;32.70;14.52;;;;;;;-7.06;91.35;102669.31;5003982;28;20029;-65
2022/12/18 04:22:41;;;;;;;32.33;14.52;;;;;;;-7.08;91.88;102660.63;5003843;28;20018;-65
2022/12/18 04:25:06;;;;;;;30.48;13.65;;;;;;;-7.08;92.50;102664.75;5003733;28;20072;-64
2022/12/18 04:27:31;;;;;;;31.60;14.10;;;;;;;-7.11;92.19;102664.38;5003965;28;20023;-65
2022/12/18 04:29:57;;;;;;;32.15;13.98;;;;;;;-7.12;92.86;102660.06;5003908;28;20050;-65
2022/12/18 04:32:22;;;;;;;32.63;13.90;;;;;;;-7.11;92.63;102662.78;5003900;28;20280;-65
2022/12/18 04:34:47;;;;;;;33.72;14.18;;;;;;;-7.10;92.08;102667.09;5003991;28;20018;-65
2022/12/18 04:37:13;;;;;;;29.02;13.70;;;;;;;-7.10;92.26;102674.69;5004046;28;20043;-65
2022/12/18 04:39:39;;;;;;;28.60;13.43;;;;;;;-7.07;92.45;102681.78;5035702;28;20165;-64
2022/12/18 04:42:04;;;;;;;29.52;13.98;;;;;;;-7.06;92.62;102683.59;5004213;28;20022;-65
2022/12/18 04:44:29;;;;;;;26.55;12.95;;;;;;;-7.05;91.76;102685.44;5003710;28;20097;-65
2022/12/18 04:46:55;;;;;;;29.20;13.60;;;;;;;-7.05;91.66;102677.81;5003838;28;20022;-67
2022/12/18 04:49:21;;;;;;;31.63;13.68;;;;;;;-7.06;91.67;102686.13;5003790;28;20025;-68
2022/12/18 04:51:46;;;;;;;27.08;13.13;;;;;;;-7.07;91.32;102696.97;5003726;28;20048;-67
2022/12/18 04:54:11;;;;;;;30.73;13.52;;;;;;;-7.08;90.96;102705.28;5003878;28;20025;-67
2022/12/18 04:56:36;;;;;;;30.27;13.30;;;;;;;-7.09;91.36;102706.94;5003815;28;20261;-67
2022/12/18 04:59:02;;;;;;;27.23;12.73;;;;;;;-7.09;90.87;102708.56;5003784;28;20018;-67
2022/12/18 05:01:27;;;;;;;30.15;13.63;;;;;;;-7.11;91.00;102702.38;5003635;28;20026;-67
2022/12/18 05:03:52;;;;;;;25.27;12.68;;;;;;;-7.11;91.00;102705.84;5003686;28;20022;-67
2022/12/18 05:06:18;;;;;;;26.17;12.60;;;;;;;-7.09;90.92;102706.03;5003658;28;20262;-67
2022/12/18 05:08:43;;;;;;;30.75;13.23;;;;;;;-7.11;90.38;102707.44;5003742;28;20042;-67
2022/12/18 05:11:12;;;;;;;27.27;12.88;;;;;;;-7.13;90.32;102708.88;5003423;28;20072;-67
2022/12/18 05:13:37;;;;;;;27.65;12.68;;;;;;;-7.14;90.31;102713.03;5003569;28;20253;-67
2022/12/18 05:16:04;;;;;;;28.63;12.48;;;;;;;-7.14;90.31;102715.56;5003810;28;20014;-67
2022/12/18 05:18:30;;;;;;;28.70;12.73;;;;;;;-7.15;90.36;102713.78;5006161;28;20200;-64
2022/12/18 05:20:56;;;;;;;25.80;11.77;;;;;;;-7.17;90.00;102716.13;5007367;28;20006;-65
2022/12/18 05:23:23;;;;;;;27.92;11.93;;;;;;;-7.18;90.18;102706.69;5006934;28;20069;-65
2022/12/18 05:25:57;;;;;;;27.05;12.23;;;;;;;-7.21;89.81;102708.84;5005534;28;20018;-64
2022/12/18 05:28:25;;;;;;;27.42;12.20;;;;;;;-7.22;89.86;102701.94;5006663;28;20033;-65
2022/12/18 05:30:55;;;;;;;24.25;11.48;;;;;;;-7.24;90.09;102698.34;5006616;28;20022;-65
2022/12/18 05:33:22;;;;;;;27.10;11.75;;;;;;;-7.23;90.08;102695.06;5006695;28;20077;-64
2022/12/18 05:35:52;;;;;;;26.65;11.40;;;;;;;-7.23;89.83;102702.66;5006705;28;20026;-65
2022/12/18 05:38:18;;;;;;;28.77;12.13;;;;;;;-7.22;89.55;102708.66;5006851;28;20164;-65
2022/12/18 05:40:43;;;;;;;25.70;12.13;;;;;;;-7.23;89.89;102695.06;5006623;28;20014;-65
2022/12/18 05:43:09;;;;;;;26.77;11.57;;;;;;;-7.25;89.58;102695.63;5007115;28;20022;-65
2022/12/18 05:45:38;;;;;;;29.13;12.27;;;;;;;-7.27;90.11;102695.44;5006442;28;20038;-65
2022/12/18 05:48:03;;;;;;;28.67;12.32;;;;;;;-7.27;89.83;102687.81;5006402;28;20272;-65
2022/12/18 05:50:29;;;;;;;27.67;11.25;;;;;;;-7.26;89.83;102682.03;5005142;28;20156;-65
2022/12/18 05:52:54;;;;;;;24.10;11.90;;;;;;;-7.25;90.20;102673.72;5006421;28;20044;-65
2022/12/18 05:55:19;;;;;;;25.45;11.82;;;;;;;-7.24;89.75;102683.13;5006256;28;20026;-65
2022/12/18 05:57:44;;;;;;;25.95;11.60;;;;;;;-7.23;90.02;102679.88;5006308;28;20081;-65
2022/12/18 06:00:11;;;;;;;23.98;11.15;;;;;;;-7.23;89.79;102679.88;5006321;28;20018;-65
2022/12/18 06:02:37;;;;;;;26.80;11.35;;;;;;;-7.25;89.67;102675.34;5006229;28;20022;-65
2022/12/18 06:05:02;;;;;;;22.02;10.88;;;;;;;-7.27;89.75;102680.22;5006188;28;20036;-64
2022/12/18 06:07:27;;;;;;;24.05;11.77;;;;;;;-7.27;89.42;102675.16;5005998;28;20030;-65
2022/12/18 06:09:53;;;;;;;26.00;11.93;;;;;;;-7.27;89.33;102676.78;5006071;28;20037;-65
2022/12/18 06:12:18;;;;;;;28.23;11.40;;;;;;;-7.27;89.36;102671.69;5005883;28;20017;-65
2022/12/18 06:14:43;;;;;;;25.17;11.73;;;;;;;-7.26;89.34;102671.00;5005985;28;20018;-65
2022/12/18 06:17:09;;;;;;;24.35;11.20;;;;;;;-7.28;89.46;102670.81;5005877;28;20002;-67
2022/12/18 06:19:34;;;;;;;23.58;11.13;;;;;;;-7.27;89.41;102672.63;5005869;28;20011;-67
2022/12/18 06:21:59;;;;;;;23.63;11.25;;;;;;;-7.27;90.59;102677.69;5005920;28;20056;-67
2022/12/18 06:24:24;;;;;;;23.90;11.00;;;;;;;-7.27;91.12;102676.78;5006028;28;20022;-68
2022/12/18 06:26:50;;;;;;;26.55;11.57;;;;;;;-7.27;91.04;102685.28;5005750;28;20091;-67
2022/12/18 06:29:15;;;;;;;23.83;11.18;;;;;;;-7.27;90.78;102687.81;5005388;28;20308;-68
2022/12/18 06:31:40;;;;;;;26.30;11.30;;;;;;;-7.28;90.70;102686.00;5005713;28;20021;-67
2022/12/18 06:34:06;;;;;;;22.60;10.68;;;;;;;-7.32;90.23;102672.78;5005640;28;20261;-67
2022/12/18 06:36:31;;;;;;;23.48;10.60;;;;;;;-7.36;90.01;102679.06;5005707;28;20033;-68
2022/12/18 06:38:57;;;;;;;25.08;12.02;;;;;;;-7.37;90.24;102679.78;5005419;28;20018;-70
2022/12/18 06:41:22;;;;;;;25.00;11.20;;;;;;;-7.39;90.31;102679.59;5005466;28;20081;-67
2022/12/18 06:43:48;;;;;;;23.25;11.00;;;;;;;-7.40;90.32;102670.19;5005309;28;20307;-70
2022/12/18 06:46:14;;;;;;;25.10;11.18;;;;;;;-7.40;91.36;102657.53;5005133;28;20097;-65
2022/12/18 06:48:40;;;;;;;25.10;11.80;;;;;;;-7.44;92.48;102659.47;5005148;28;20038;-64
2022/12/18 06:51:05;;;;;;;26.70;11.75;;;;;;;-7.44;92.48;102657.88;5005240;28;20025;-64
2022/12/18 06:53:32;;;;;;;25.52;12.20;;;;;;;-7.45;93.00;102660.22;5005290;28;20083;-64
2022/12/18 06:56:06;;;;;;;24.67;11.95;;;;;;;-7.44;93.61;102654.41;5005274;28;20061;-64
2022/12/18 06:58:32;;;;;;;24.80;12.05;;;;;;;-7.44;93.43;102652.78;5004956;28;20038;-65
2022/12/18 07:01:02;;;;;;;26.98;12.73;;;;;;;-7.45;93.65;102656.03;5005106;28;20257;-64
2022/12/18 07:03:28;;;;;;;27.42;12.50;;;;;;;-7.46;93.99;102665.97;5004714;28;20042;-66
2022/12/18 07:05:53;;;;;;;29.77;13.68;;;;;;;-7.47;94.18;102661.63;5004893;28;20208;-64
2022/12/18 07:08:18;;;;;;;27.27;12.35;;;;;;;-7.45;94.23;102666.16;5003584;28;20014;-64
2022/12/18 07:10:44;;;;;;;25.98;11.82;;;;;;;-7.44;94.17;102662.00;5004740;28;20011;-64
2022/12/18 07:13:09;;;;;;;24.27;11.65;;;;;;;-7.45;93.87;102650.09;5004696;28;20324;-64
2022/12/18 07:15:35;;;;;;;26.27;12.35;;;;;;;-7.43;94.04;102638.50;5003681;28;20006;-65
2022/12/18 07:18:00;;;;;;;26.95;12.32;;;;;;;-7.44;94.13;102641.75;5004831;28;20021;-68
2022/12/18 07:20:25;;;;;;;25.17;12.40;;;;;;;-7.44;94.27;102637.59;5004871;28;20010;-68
2022/12/18 07:22:50;;;;;;;26.65;13.27;;;;;;;-7.44;94.69;102627.47;5004718;28;20204;-68
2022/12/18 07:25:16;;;;;;;28.42;13.40;;;;;;;-7.45;94.98;102623.13;5004562;28;20077;-68
2022/12/18 07:27:41;;;;;;;30.60;13.00;;;;;;;-7.47;94.89;102604.31;5004657;28;20022;-67
2022/12/18 07:30:07;;;;;;;29.65;13.38;;;;;;;-7.51;95.20;102599.59;5004598;28;20022;-69
2022/12/18 07:32:32;;;;;;;29.38;13.43;;;;;;;-7.52;95.27;102596.16;5004736;28;20255;-67
2022/12/18 07:34:57;;;;;;;29.77;12.45;;;;;;;-7.47;95.30;102608.47;5004468;28;20050;-68
2022/12/18 07:37:23;;;;;;;28.08;12.95;;;;;;;-7.48;95.72;102599.06;5004469;28;20025;-70
2022/12/18 07:39:48;;;;;;;29.55;13.73;;;;;;;-7.48;95.59;102601.59;5003932;28;20025;-68
2022/12/18 07:42:31;;;;;;;28.40;13.30;;;;;;;-7.48;95.90;102597.44;5004345;28;20018;-67
2022/12/18 07:44:57;;;;;;;28.65;12.95;;;;;;;-7.45;95.73;102594.38;5004345;28;20065;-67
2022/12/18 07:47:23;;;;;;;29.70;13.32;;;;;;;-7.44;96.29;102586.03;5004420;28;20018;-65
2022/12/18 07:49:48;;;;;;;26.25;13.18;;;;;;;-7.41;96.16;102577.22;5004344;28;20017;-64
2022/12/18 07:52:13;;;;;;;28.38;13.07;;;;;;;-7.37;96.53;102578.50;5004107;28;20241;-65
2022/12/18 07:54:40;;;;;;;31.73;13.68;;;;;;;-7.36;96.50;102570.19;5004133;28;20016;-64
2022/12/18 07:57:05;;;;;;;32.80;14.27;;;;;;;-7.34;96.67;102554.47;5004267;28;20052;-64
2022/12/18 07:59:31;;;;;;;30.55;12.90;;;;;;;-7.29;96.71;102552.50;5004302;28;20022;-64
2022/12/18 08:01:56;;;;;;;31.45;14.15;;;;;;;-7.24;97.15;102556.50;5004232;28;20014;-65
2022/12/18 08:04:21;;;;;;;29.45;14.27;;;;;;;-7.17;97.29;102565.75;5004109;28;20053;-65
2022/12/18 08:06:46;;;;;;;34.40;13.57;;;;;;;-7.11;97.02;102574.13;5004231;28;20022;-65
2022/12/18 08:09:12;;;;;;;29.05;12.95;;;;;;;-7.07;97.06;102578.81;5004002;28;20014;-65
2022/12/18 08:11:37;;;;;;;29.60;13.95;;;;;;;-7.00;97.10;102575.41;5004295;28;20276;-66
2022/12/18 08:14:02;;;;;;;30.63;13.75;;;;;;;-6.95;96.99;102574.34;5004222;28;20061;-65
2022/12/18 08:16:28;;;;;;;32.22;13.55;;;;;;;-6.87;96.92;102565.13;5004045;28;20034;-68
2022/12/18 08:18:53;;;;;;;27.60;13.80;;;;;;;-6.82;96.89;102571.69;5004260;28;20022;-69
2022/12/18 08:21:22;;;;;;;28.92;12.93;;;;;;;-6.76;96.36;102568.94;5004001;28;20019;-69
2022/12/18 08:23:49;;;;;;;30.35;13.27;;;;;;;-6.73;97.03;102582.03;5004070;28;20018;-69
2022/12/18 08:26:15;;;;;;;27.17;12.73;;;;;;;-6.70;96.81;102580.75;5004121;28;20026;-69
2022/12/18 08:28:41;;;;;;;33.10;13.52;;;;;;;-6.67;96.27;102591.25;5004043;28;20014;-69
2022/12/18 08:31:07;;;;;;;30.25;13.48;;;;;;;-6.62;96.90;102580.78;5003808;28;20052;-69
2022/12/18 08:33:33;;;;;;;28.90;13.32;;;;;;;-6.56;96.84;102578.97;5003792;28;20003;-69
2022/12/18 08:36:00;;;;;;;29.85;14.32;;;;;;;-6.53;96.69;102575.19;5003900;28;20026;-69
2022/12/18 08:38:25;;;;;;;29.90;13.77;;;;;;;-6.49;96.91;102584.03;5035648;28;20025;-69
2022/12/18 08:41:00;;;;;;;30.80;13.70;;;;;;;-6.45;96.59;102576.09;5003928;28;20077;-69
2022/12/18 08:46:09;;;;;;;30.17;14.05;;;;;;;-6.37;96.16;102554.16;5003697;28;20085;-65
2022/12/18 08:48:34;;;;;;;28.15;13.30;;;;;;;-6.33;96.35;102553.81;5003859;28;20260;-65
2022/12/18 08:51:00;;;;;;;29.75;14.50;;;;;;;-6.28;96.23;102545.13;5004199;28;20072;-65
2022/12/18 08:53:26;;;;;;;31.77;14.27;;;;;;;-6.24;96.45;102543.84;5007409;28;20071;-65
2022/12/18 08:55:52;;;;;;;28.27;14.55;;;;;;;-6.19;96.33;102547.84;5007401;28;20030;-65
2022/12/18 08:58:18;;;;;;;29.90;13.10;;;;;;;-6.16;96.82;102544.03;5007494;28;20022;-65
2022/12/18 09:00:44;;;;;;;32.65;15.00;;;;;;;-6.10;96.51;102548.03;5007382;28;20022;-65
2022/12/18 09:03:18;;;;;;;30.70;13.27;;;;;;;-6.06;96.79;102546.03;5007363;28;20126;-66
2022/12/18 09:05:45;;;;;;;27.80;13.60;;;;;;;-6.00;96.36;102545.84;5007232;28;20041;-65
2022/12/18 09:08:11;;;;;;;34.25;15.05;;;;;;;-5.95;96.57;102544.72;5007195;28;20022;-65
2022/12/18 09:10:45;;;;;;;31.48;14.40;;;;;;;-5.89;96.20;102550.50;5007027;28;20022;-65
2022/12/18 09:13:11;;;;;;;31.13;14.65;;;;;;;-5.84;96.21;102564.63;5007156;28;20089;-65
2022/12/18 09:15:46;;;;;;;30.83;13.73;;;;;;;-5.80;96.54;102561.72;5005855;28;20101;-65
2022/12/18 09:18:13;;;;;;;27.85;13.75;;;;;;;-5.74;95.58;102565.72;5005935;28;20271;-65
2022/12/18 09:20:39;;;;;;;29.63;13.50;;;;;;;-5.70;95.58;102567.91;5007041;28;20048;-65
2022/12/18 09:23:05;;;;;;;29.40;13.35;;;;;;;-5.65;95.53;102576.94;5007062;28;20014;-65
2022/12/18 09:25:35;;;;;;;35.47;14.27;;;;;;;-5.61;96.04;102579.13;5006934;28;20022;-65
2022/12/18 09:28:05;;;;;;;26.95;13.30;;;;;;;-5.56;96.35;102574.56;5005774;28;20089;-65
2022/12/18 09:30:33;;;;;;;28.77;13.88;;;;;;;-5.54;95.76;102568.94;5006855;28;20037;-65
2022/12/18 09:32:58;;;;;;;27.02;13.60;;;;;;;-5.49;96.03;102564.38;5006728;28;20015;-65
2022/12/18 09:35:23;;;;;;;31.33;13.35;;;;;;;-5.47;95.55;102553.69;5006570;28;20018;-65
2022/12/18 09:37:49;;;;;;;31.92;14.48;;;;;;;-5.42;95.74;102555.13;5005722;28;20017;-65
2022/12/18 09:40:17;;;;;;;28.63;14.25;;;;;;;-5.39;96.10;102551.13;5006795;28;20006;-65
2022/12/18 09:42:50;;;;;;;31.35;14.55;;;;;;;-5.37;95.52;102539.50;5006688;28;20208;-65
2022/12/18 09:45:16;;;;;;;27.75;14.13;;;;;;;-5.32;95.65;102540.94;5006374;28;20042;-65
2022/12/18 09:47:45;;;;;;;28.77;13.88;;;;;;;-5.29;95.17;102539.63;5006435;28;20085;-65
2022/12/18 09:50:38;;;;;;;30.88;14.38;;;;;;;-5.23;95.49;102534.34;5006208;28;20018;-65
2022/12/18 09:53:12;;;;;;;32.13;14.80;;;;;;;-5.20;95.79;102527.06;5006438;28;20130;-64
2022/12/18 09:55:41;;;;;;;27.58;13.15;;;;;;;-5.15;94.97;102517.47;5006411;28;20029;-65
2022/12/18 09:58:33;;;;;;;31.45;15.27;;;;;;;-5.13;95.69;102511.78;5006297;28;20022;-65
2022/12/18 10:00:58;;;;;;;32.03;14.52;;;;;;;-5.08;94.94;102519.97;5006309;28;20025;-65
2022/12/18 10:03:24;;;;;;;31.98;15.75;;;;;;;-5.04;94.31;102533.91;5005520;28;20018;-65
2022/12/18 10:06:08;;;;;;;30.40;14.15;;;;;;;-5.00;94.97;102533.53;5006217;28;20245;-65
2022/12/18 10:08:51;;;;;;;29.52;14.40;;;;;;;-4.94;95.16;102521.50;5006302;28;20082;-65
2022/12/18 10:11:54;;;;;;;33.55;14.27;;;;;;;-4.88;95.64;102527.31;5005944;28;20119;-65
2022/12/18 10:15:10;;;;;;;30.02;13.90;;;;;;;-4.81;95.49;102521.25;5006071;28;20033;-65
2022/12/18 10:17:51;;;;;;;27.83;13.88;;;;;;;-4.75;95.36;102522.84;4994141;28;20033;-65
2022/12/18 10:20:27;;;;;;;28.92;14.52;;;;;;;-4.68;95.28;102528.63;4993465;28;20308;-65
2022/12/18 10:23:01;;;;;;;30.67;14.90;;;;;;;-4.63;95.17;102535.16;5005908;28;20025;-65
2022/12/18 10:25:45;;;;;;;30.38;14.45;;;;;;;-4.56;95.58;102517.28;5005811;28;20077;-65
2022/12/18 10:28:13;;;;;;;31.83;14.65;;;;;;;-4.52;95.80;102514.31;5005656;28;20024;-65
2022/12/18 10:30:39;;;;;;;29.95;14.88;;;;;;;-4.48;95.77;102503.75;5005702;28;20046;-65
2022/12/18 10:33:05;;;;;;;27.40;13.55;;;;;;;-4.44;94.63;102503.38;5005780;28;20213;-65
2022/12/18 10:35:31;;;;;;;31.67;14.63;;;;;;;-4.39;94.28;102492.06;5005743;28;20017;-65
2022/12/18 10:38:29;;;;;;;28.38;14.13;;;;;;;-4.34;95.08;102489.09;5004260;28;20088;-65
2022/12/18 10:41:03;;;;;;;33.22;14.75;;;;;;;-4.28;95.25;102483.06;5001437;28;20049;-65
2022/12/18 10:43:30;;;;;;;26.80;14.32;;;;;;;-4.24;94.89;102480.13;5005472;28;20046;-65
2022/12/18 10:46:08;;;;;;;29.88;13.90;;;;;;;-4.18;94.67;102479.88;5005339;28;20045;-65
2022/12/18 10:48:39;;;;;;;32.88;14.57;;;;;;;-4.12;93.69;102469.47;5005325;28;20237;-69
2022/12/18 10:51:06;;;;;;;27.63;14.00;;;;;;;-4.08;94.98;102469.97;5005243;28;20030;-69
2022/12/18 10:53:34;;;;;;;28.70;14.18;;;;;;;-4.02;93.77;102468.06;5005410;28;20037;-69
2022/12/18 10:56:03;;;;;;;29.02;14.75;;;;;;;-3.97;93.37;102465.13;5004426;28;20150;-68
2022/12/18 10:58:34;;;;;;;30.08;14.40;;;;;;;-3.94;93.50;102460.38;5005420;28;20155;-69
2022/12/18 11:01:04;;;;;;;28.63;14.25;;;;;;;-3.91;93.88;102451.44;5005276;28;20316;-69
2022/12/18 11:03:49;;;;;;;30.05;14.75;;;;;;;-3.86;92.92;102444.28;5005037;28;20020;-69
2022/12/18 11:06:18;;;;;;;30.85;14.77;;;;;;;-3.83;94.12;102444.59;5000946;28;20068;-69
2022/12/18 11:08:57;;;;;;;32.97;15.25;;;;;;;-3.78;94.09;102453.66;5036735;28;20324;-69
2022/12/18 11:11:23;;;;;;;;;;;;;;;-3.72;93.73;102454.31;5005226;28;20030;-69
2022/12/18 11:13:57;;;;;;;30.98;13.90;;;;;;;-3.70;94.06;102452.81;5004921;28;19902;-69
2022/12/18 11:16:23;;;;;;;29.20;13.77;;;;;;;-3.67;93.74;102460.78;5004290;28;20014;-69
2022/12/18 11:18:49;;;;;;;32.83;14.25;;;;;;;-3.60;93.06;102464.00;5004839;28;20033;-69
2022/12/18 11:21:14;;;;;;;30.33;14.55;;;;;;;-3.58;nan;102447.22;5004769;28;20311;-69
2022/12/18 11:23:53;;;;;;;31.17;14.93;;;;;;;-3.53;93.59;102443.53;5003604;28;20014;-69
2022/12/18 11:26:18;;;;;;;28.95;14.30;;;;;;;-3.48;93.23;102424.50;5004736;28;20156;-69